Time;durP1;ratioP1;P1;durP2;ratioP2;P2;SDS_P1;SDS_P2;PMS_P1;PMS_P2;Temp;Humidity;BMP_temperature;BMP_pressure;BME280_temperature;BME280_humidity;BME280_pressure;Samples;Min_cycle;Max_cycle;Signal;HPM_P1;HPM_P2
2023/08/17 00:02:23;;;;;;;0.73;0.55;;;;;;;22.15;80.52;101474.94;5026031;28;20049;-65
2023/08/17 00:04:49;;;;;;;1.85;0.75;;;;;;;22.18;80.05;101479.59;5032686;28;20116;-65
2023/08/17 00:07:14;;;;;;;0.60;0.60;;;;;;;22.16;80.87;101477.25;5026264;28;20029;-64
2023/08/17 00:09:40;;;;;;;1.45;0.80;;;;;;;22.14;80.78;101470.66;5016960;28;20025;-65
2023/08/17 00:12:06;;;;;;;0.52;0.52;;;;;;;22.18;80.80;101468.63;5025266;28;20064;-64
2023/08/17 00:14:32;;;;;;;0.88;0.70;;;;;;;22.16;80.94;101477.25;5012952;28;20037;-65
2023/08/17 00:17:19;;;;;;;2.17;0.88;;;;;;;22.16;80.63;101463.53;5016413;28;20025;-65
2023/08/17 00:19:44;;;;;;;1.63;0.50;;;;;;;22.10;80.58;101461.69;5001124;28;20057;-65
2023/08/17 00:22:09;;;;;;;2.15;0.40;;;;;;;22.08;80.87;101453.09;5017283;28;20416;-65
2023/08/17 00:24:35;;;;;;;1.38;0.70;;;;;;;22.05;81.35;101453.91;5026310;28;20113;-65
2023/08/17 00:27:00;;;;;;;1.10;0.60;;;;;;;22.00;81.66;101459.84;5018522;28;20253;-65
2023/08/17 00:29:26;;;;;;;0.82;0.73;;;;;;;21.99;82.17;101455.56;4996849;28;20072;-65
2023/08/17 00:31:52;;;;;;;3.13;0.50;;;;;;;21.96;82.33;101454.41;5001724;28;20223;-64
2023/08/17 00:34:18;;;;;;;2.45;1.00;;;;;;;21.98;82.04;101460.28;5019849;28;20120;-65
2023/08/17 00:36:44;;;;;;;0.93;0.57;;;;;;;21.96;82.52;101454.41;5018921;28;20040;-65
2023/08/17 00:39:09;;;;;;;2.65;0.80;;;;;;;21.95;82.46;101460.31;5011402;28;20042;-65
2023/08/17 00:41:35;;;;;;;0.90;0.60;;;;;;;21.94;82.86;101445.03;5022107;28;20029;-65
2023/08/17 00:44:01;;;;;;;0.85;0.50;;;;;;;21.95;82.91;101441.88;5031110;28;20080;-65
2023/08/17 00:46:27;;;;;;;1.77;0.68;;;;;;;21.87;83.26;101443.19;5017205;28;20044;-65
2023/08/17 00:48:54;;;;;;;1.15;0.68;;;;;;;21.86;83.37;101436.13;4991427;28;20022;-65
2023/08/17 00:51:23;;;;;;;1.10;0.70;;;;;;;21.90;82.90;101428.63;5003248;28;20464;-65
2023/08/17 00:53:51;;;;;;;0.80;0.68;;;;;;;21.92;82.60;101433.69;5009443;28;20038;-65
2023/08/17 00:56:16;;;;;;;0.50;0.50;;;;;;;21.89;82.07;101429.06;5013639;28;20543;-65
2023/08/17 00:58:43;;;;;;;1.52;0.50;;;;;;;21.78;82.67;101422.88;5006003;28;20033;-65
2023/08/17 01:01:09;;;;;;;1.05;0.52;;;;;;;21.81;82.57;101430.31;4994891;28;20030;-65
2023/08/17 01:03:35;;;;;;;1.00;0.50;;;;;;;21.82;81.85;101418.94;5026719;28;20477;-65
2023/08/17 01:06:02;;;;;;;0.80;0.45;;;;;;;21.85;81.89;101423.63;5012611;28;20048;-65
2023/08/17 01:08:29;;;;;;;1.30;0.40;;;;;;;21.83;82.11;101425.22;5021249;28;20029;-65
2023/08/17 01:11:05;;;;;;;2.50;0.40;;;;;;;21.87;81.80;101417.72;5012876;28;20034;-65
2023/08/17 01:13:38;;;;;;;0.38;0.32;;;;;;;21.82;81.88;101407.19;5017108;28;20052;-65
2023/08/17 01:16:07;;;;;;;0.70;0.30;;;;;;;21.77;82.11;101413.13;5032998;28;20045;-65
2023/08/17 01:18:36;;;;;;;1.88;0.70;;;;;;;21.75;81.89;101412.75;5014691;28;20112;-65
2023/08/17 01:21:06;;;;;;;0.52;0.40;;;;;;;21.70;81.36;101405.75;5011775;28;20371;-65
2023/08/17 01:23:32;;;;;;;0.70;0.70;;;;;;;21.69;81.28;101412.44;4998116;28;20044;-65
2023/08/17 01:25:57;;;;;;;5.68;0.95;;;;;;;21.69;81.37;101414.38;5006840;28;20030;-65
2023/08/17 01:28:24;;;;;;;0.20;0.20;;;;;;;21.69;80.60;101414.38;5012762;28;20702;-65
2023/08/17 01:30:57;;;;;;;1.38;0.50;;;;;;;21.66;81.08;101418.72;5012674;28;20037;-65
2023/08/17 01:33:47;;;;;;;0.28;0.28;;;;;;;21.67;80.40;101427.72;5023728;28;20037;-65
2023/08/17 01:36:24;;;;;;;0.35;0.35;;;;;;;21.58;81.33;101420.78;5013132;28;20044;-66
2023/08/17 01:38:52;;;;;;;0.30;0.22;;;;;;;21.56;80.73;101427.88;5030563;28;20581;-66
2023/08/17 01:41:20;;;;;;;0.65;0.38;;;;;;;21.56;80.51;101428.63;5028577;28;20086;-65
2023/08/17 01:43:47;;;;;;;1.35;0.40;;;;;;;21.55;80.59;101429.84;5013906;28;20034;-66
2023/08/17 01:46:17;;;;;;;0.95;0.40;;;;;;;21.55;80.48;101427.09;5035835;28;20092;-66
2023/08/17 01:48:46;;;;;;;0.47;0.47;;;;;;;21.57;80.27;101437.66;5035248;28;20041;-66
2023/08/17 01:51:19;;;;;;;0.32;0.28;;;;;;;21.60;80.08;101431.34;5017940;28;20061;-67
2023/08/17 01:53:44;;;;;;;0.68;0.50;;;;;;;21.63;79.22;101425.03;5024364;28;20033;-67
2023/08/17 01:56:10;;;;;;;1.10;0.32;;;;;;;21.52;80.37;101427.91;5039915;28;20032;-67
2023/08/17 01:58:35;;;;;;;0.80;0.60;;;;;;;21.54;79.54;101430.25;5009523;28;20033;-66
2023/08/17 02:01:01;;;;;;;1.35;0.60;;;;;;;21.59;79.17;101427.03;5011280;28;20041;-67
2023/08/17 02:03:28;;;;;;;4.10;0.57;;;;;;;21.55;79.05;101440.03;5006128;28;20113;-66
2023/08/17 02:05:57;;;;;;;0.68;0.20;;;;;;;21.54;79.04;101428.28;5019798;28;20033;-66
2023/08/17 02:08:22;;;;;;;0.85;0.30;;;;;;;21.53;78.43;101432.22;5036674;28;20048;-67
2023/08/17 02:10:48;;;;;;;5.05;0.55;;;;;;;21.51;78.51;101423.63;5036689;28;20021;-66
2023/08/17 02:13:14;;;;;;;0.32;0.20;;;;;;;21.54;78.26;101425.53;5007592;28;20447;-67
2023/08/17 02:15:40;;;;;;;0.75;0.40;;;;;;;21.53;78.29;101426.72;5026215;28;20036;-67
2023/08/17 02:18:05;;;;;;;0.82;0.40;;;;;;;21.53;78.09;101424.00;5000900;28;20425;-67
2023/08/17 02:20:31;;;;;;;7.07;0.70;;;;;;;21.56;77.91;101427.88;5011833;28;20091;-67
2023/08/17 02:22:56;;;;;;;0.90;0.45;;;;;;;21.50;77.93;101433.00;5020094;28;20029;-66
2023/08/17 02:25:22;;;;;;;1.83;0.65;;;;;;;21.50;77.56;101435.75;5017056;28;20035;-66
2023/08/17 02:27:50;;;;;;;2.42;0.75;;;;;;;21.49;77.80;101425.22;5001674;28;20098;-67
2023/08/17 02:30:16;;;;;;;0.75;0.20;;;;;;;21.49;77.81;101425.22;5017640;28;20060;-67
2023/08/17 02:32:41;;;;;;;3.50;0.25;;;;;;;21.44;77.42;101429.19;4998104;28;20037;-67
2023/08/17 02:35:07;;;;;;;0.22;0.22;;;;;;;21.33;78.16;101423.03;5012859;28;20079;-67
2023/08/17 02:37:33;;;;;;;0.22;0.20;;;;;;;21.38;77.66;101425.34;5004163;28;20084;-67
2023/08/17 02:39:58;;;;;;;0.52;0.30;;;;;;;21.39;77.77;101412.41;5021463;28;20513;-68
2023/08/17 02:42:24;;;;;;;0.45;0.35;;;;;;;21.34;77.85;101416.38;5017637;28;20048;-66
2023/08/17 02:44:49;;;;;;;0.85;0.30;;;;;;;21.38;77.51;101408.91;5031293;28;20038;-67
2023/08/17 02:47:15;;;;;;;0.20;0.20;;;;;;;21.33;77.68;101403.09;5021039;28;20125;-66
2023/08/17 02:49:40;;;;;;;2.38;0.38;;;;;;;21.36;77.43;101407.75;5004279;28;20048;-66
2023/08/17 02:52:06;;;;;;;2.00;0.60;;;;;;;21.34;77.01;101407.38;5024483;28;20033;-66
2023/08/17 02:54:31;;;;;;;0.57;0.22;;;;;;;21.33;77.37;101403.84;5000419;28;20037;-64
2023/08/17 02:56:57;;;;;;;0.40;0.40;;;;;;;21.32;77.33;101399.56;5020366;28;20034;-66
2023/08/17 02:59:23;;;;;;;2.17;0.40;;;;;;;21.32;77.38;101402.31;5010872;28;20042;-66
2023/08/17 03:01:48;;;;;;;0.40;0.20;;;;;;;21.33;77.78;101397.63;4995661;28;20033;-66
2023/08/17 03:04:14;;;;;;;0.60;0.47;;;;;;;21.31;77.66;101394.50;5005165;28;20048;-66
2023/08/17 03:06:40;;;;;;;0.68;0.30;;;;;;;21.36;77.81;101405.00;5014228;28;20474;-66
2023/08/17 03:09:05;;;;;;;2.55;0.30;;;;;;;21.27;77.29;101407.47;5024183;28;20029;-65
2023/08/17 03:11:31;;;;;;;1.35;0.30;;;;;;;21.25;77.89;101407.09;5017523;28;20080;-66
2023/08/17 03:13:59;;;;;;;0.52;0.30;;;;;;;21.25;77.84;101409.84;5009594;28;20408;-66
2023/08/17 03:16:27;;;;;;;0.68;0.20;;;;;;;21.20;78.21;101410.28;4992542;28;20937;-67
2023/08/17 03:18:52;;;;;;;0.60;0.30;;;;;;;21.19;77.75;101414.22;5008064;28;20042;-66
2023/08/17 03:21:19;;;;;;;0.40;0.22;;;;;;;21.19;78.50;101408.72;5004468;28;20449;-66
2023/08/17 03:23:45;;;;;;;0.38;0.30;;;;;;;21.20;78.33;101416.53;5002429;28;20401;-67
2023/08/17 03:26:11;;;;;;;0.65;0.40;;;;;;;21.21;78.71;101415.38;4998791;28;20041;-66
2023/08/17 03:28:37;;;;;;;0.30;0.20;;;;;;;21.27;78.59;101412.94;5004100;28;20028;-67
2023/08/17 03:31:03;;;;;;;1.65;0.45;;;;;;;21.26;78.48;101414.13;5010006;28;20080;-66
2023/08/17 03:33:29;;;;;;;0.50;0.30;;;;;;;21.23;79.08;101418.47;4996585;28;20029;-65
2023/08/17 03:35:55;;;;;;;0.32;0.30;;;;;;;21.20;79.32;101415.75;5007062;28;20086;-65
2023/08/17 03:38:20;;;;;;;0.30;0.28;;;;;;;21.16;79.57;101410.31;5024171;28;20495;-67
2023/08/17 03:40:47;;;;;;;0.30;0.20;;;;;;;21.18;79.72;101410.69;5001056;28;20033;-66
2023/08/17 03:43:13;;;;;;;0.57;0.38;;;;;;;21.21;79.48;101409.09;5002224;28;20532;-67
2023/08/17 03:45:41;;;;;;;1.48;0.40;;;;;;;21.19;79.43;101408.72;4994738;28;20038;-64
2023/08/17 03:48:07;;;;;;;1.38;0.30;;;;;;;21.13;80.12;101404.88;4998547;28;20394;-67
2023/08/17 03:50:32;;;;;;;2.55;0.35;;;;;;;21.12;80.37;101404.09;5022066;28;20026;-64
2023/08/17 03:52:57;;;;;;;1.48;0.20;;;;;;;21.13;80.70;101408.41;5014309;28;20553;-65
2023/08/17 03:55:23;;;;;;;0.22;0.22;;;;;;;21.10;81.09;101406.47;4998801;28;20036;-67
2023/08/17 03:57:48;;;;;;;0.30;0.30;;;;;;;21.08;81.22;101411.56;5007664;28;20034;-65
2023/08/17 04:00:14;;;;;;;0.60;0.50;;;;;;;21.05;81.69;101406.13;5005203;28;20116;-65
2023/08/17 04:02:40;;;;;;;0.22;0.22;;;;;;;21.05;81.90;101406.13;5020982;28;20025;-65
2023/08/17 04:05:05;;;;;;;0.50;0.38;;;;;;;21.02;82.05;101399.50;5013015;28;20033;-65
2023/08/17 04:07:31;;;;;;;1.02;0.30;;;;;;;21.07;82.27;101406.50;5006332;28;20038;-66
2023/08/17 04:09:56;;;;;;;0.45;0.30;;;;;;;21.06;82.42;101400.25;5003221;28;20030;-66
2023/08/17 04:12:23;;;;;;;0.30;0.30;;;;;;;21.11;82.36;101415.47;5023342;28;20041;-65
2023/08/17 04:14:49;;;;;;;2.80;0.28;;;;;;;21.08;82.42;101414.31;4994948;28;20029;-66
2023/08/17 04:17:14;;;;;;;0.60;0.30;;;;;;;21.13;82.41;101419.38;5011018;28;20025;-65
2023/08/17 04:19:39;;;;;;;0.60;0.40;;;;;;;21.10;82.80;101414.69;5002528;28;20076;-66
2023/08/17 04:22:07;;;;;;;0.40;0.40;;;;;;;21.10;83.12;101420.16;5010358;28;20462;-66
2023/08/17 04:24:32;;;;;;;0.38;0.35;;;;;;;21.11;83.28;101421.72;4994530;28;20072;-65
2023/08/17 04:26:58;;;;;;;0.30;0.30;;;;;;;21.11;83.49;101423.69;4996741;28;20049;-66
2023/08/17 04:29:25;;;;;;;0.38;0.35;;;;;;;21.09;83.18;101424.09;4994993;28;20080;-66
2023/08/17 04:31:51;;;;;;;0.40;0.40;;;;;;;21.08;83.56;101432.72;5025343;28;20037;-65
2023/08/17 04:34:16;;;;;;;0.38;0.28;;;;;;;21.08;83.98;101436.22;5005209;28;20030;-65
2023/08/17 04:36:45;;;;;;;1.15;0.35;;;;;;;21.04;84.03;101435.47;5000932;28;20044;-66
2023/08/17 04:39:10;;;;;;;0.47;0.47;;;;;;;21.03;84.07;101435.91;4986442;28;20486;-65
2023/08/17 04:41:36;;;;;;;0.65;0.50;;;;;;;21.04;84.44;101438.22;5016348;28;20110;-66
2023/08/17 04:44:05;;;;;;;1.08;0.75;;;;;;;21.07;84.38;101440.16;5007561;28;20517;-65
2023/08/17 04:46:30;;;;;;;0.85;0.40;;;;;;;21.09;84.43;101443.28;5008917;28;20033;-66
2023/08/17 04:48:56;;;;;;;0.35;0.30;;;;;;;21.06;84.33;101446.81;5006710;28;20057;-66
2023/08/17 04:51:21;;;;;;;1.25;0.45;;;;;;;21.03;84.93;101450.38;5010259;28;20044;-66
2023/08/17 04:53:47;;;;;;;2.20;0.50;;;;;;;21.05;85.36;101461.72;4996629;28;20385;-66
2023/08/17 04:56:12;;;;;;;0.28;0.28;;;;;;;20.98;85.31;101450.00;5014320;28;20444;-66
2023/08/17 04:58:38;;;;;;;2.72;0.50;;;;;;;21.01;85.41;101447.25;5012659;28;20030;-66
2023/08/17 05:01:04;;;;;;;0.75;0.35;;;;;;;20.98;85.52;101448.03;5003843;28;20509;-65
2023/08/17 05:03:31;;;;;;;2.08;0.57;;;;;;;20.99;85.48;101457.03;5001848;28;20038;-66
2023/08/17 05:05:56;;;;;;;0.73;0.40;;;;;;;20.89;86.22;101457.91;4982988;28;20034;-66
2023/08/17 05:08:22;;;;;;;0.50;0.50;;;;;;;20.92;86.25;101468.06;5030631;28;20052;-66
2023/08/17 05:10:48;;;;;;;0.50;0.30;;;;;;;20.86;86.92;101467.72;5005074;28;20057;-66
2023/08/17 05:13:14;;;;;;;2.83;0.28;;;;;;;20.91;87.02;101470.03;5000927;28;20050;-65
2023/08/17 05:15:39;;;;;;;0.20;0.20;;;;;;;20.99;86.83;101465.25;5007448;28;20409;-66
2023/08/17 05:18:08;;;;;;;0.65;0.30;;;;;;;21.06;86.76;101485.16;4993799;28;20060;-66
2023/08/17 05:20:33;;;;;;;0.38;0.20;;;;;;;21.04;87.00;101486.78;4994136;28;20061;-66
2023/08/17 05:22:59;;;;;;;0.50;0.40;;;;;;;21.07;87.84;101491.44;4993114;28;20413;-66
2023/08/17 05:25:26;;;;;;;1.95;0.35;;;;;;;21.04;87.87;101495.00;5006880;28;20036;-66
2023/08/17 05:27:51;;;;;;;0.75;0.30;;;;;;;21.06;88.60;101495.38;5000145;28;20121;-67
2023/08/17 05:30:17;;;;;;;0.80;0.68;;;;;;;20.98;89.54;101491.88;4994052;28;20467;-67
2023/08/17 05:32:43;;;;;;;3.42;0.45;;;;;;;20.98;90.10;101502.81;4986426;28;20034;-66
2023/08/17 05:35:09;;;;;;;0.45;0.35;;;;;;;20.93;90.71;101500.53;4987987;28;20038;-66
2023/08/17 05:37:35;;;;;;;0.47;0.28;;;;;;;20.92;91.47;101504.47;4995274;28;20057;-66
2023/08/17 05:40:01;;;;;;;0.40;0.40;;;;;;;20.86;91.40;101511.56;5008979;28;20398;-66
2023/08/17 05:42:26;;;;;;;0.50;0.47;;;;;;;20.85;92.27;101509.97;5027235;28;20394;-66
2023/08/17 05:44:51;;;;;;;0.85;0.30;;;;;;;20.87;92.74;101515.03;5020050;28;20128;-67
2023/08/17 05:47:19;;;;;;;0.70;0.40;;;;;;;20.85;92.99;101515.47;5030985;28;20049;-66
2023/08/17 05:49:45;;;;;;;0.47;0.43;;;;;;;20.74;93.72;101503.03;4982159;28;20117;-67
2023/08/17 05:52:10;;;;;;;0.40;0.38;;;;;;;20.76;93.75;101504.19;5013238;28;20138;-67
2023/08/17 05:54:35;;;;;;;0.50;0.30;;;;;;;20.75;94.26;101505.34;5012326;28;20048;-66
2023/08/17 05:57:02;;;;;;;0.90;0.50;;;;;;;20.72;94.88;101506.19;5010673;28;20397;-68
2023/08/17 05:59:28;;;;;;;0.60;0.57;;;;;;;20.71;95.13;101506.59;5018490;28;20037;-67
2023/08/17 06:01:54;;;;;;;0.40;0.40;;;;;;;20.72;95.27;101502.66;5019968;28;20028;-68
2023/08/17 06:04:20;;;;;;;0.30;0.30;;;;;;;20.68;95.40;101502.69;5022384;28;20046;-68
2023/08/17 06:06:46;;;;;;;0.50;0.40;;;;;;;20.72;95.07;101505.38;5012155;28;20501;-66
2023/08/17 06:09:11;;;;;;;1.77;0.60;;;;;;;20.61;95.35;101500.00;5018558;28;20030;-66
2023/08/17 06:11:37;;;;;;;0.50;0.40;;;;;;;20.65;95.40;101496.03;5019223;28;20032;-66
2023/08/17 06:14:05;;;;;;;0.50;0.40;;;;;;;20.66;95.49;101491.34;5017913;28;20072;-66
2023/08/17 06:16:31;;;;;;;0.43;0.28;;;;;;;20.70;94.96;101489.38;5013998;28;20034;-66
2023/08/17 06:18:57;;;;;;;0.55;0.43;;;;;;;20.67;94.62;101495.66;5027589;28;20445;-67
2023/08/17 06:21:22;;;;;;;0.70;0.50;;;;;;;20.64;95.28;101496.44;5016141;28;20078;-66
2023/08/17 06:23:48;;;;;;;0.57;0.55;;;;;;;20.61;95.65;101502.75;5011611;28;20061;-68
2023/08/17 06:26:13;;;;;;;0.60;0.60;;;;;;;20.63;95.16;101503.13;5024009;28;20045;-67
2023/08/17 06:28:39;;;;;;;4.55;0.52;;;;;;;20.68;94.63;101499.94;5010245;28;20075;-68
2023/08/17 06:31:04;;;;;;;3.95;0.68;;;;;;;20.64;93.93;101493.72;5011427;28;20026;-66
2023/08/17 06:33:30;;;;;;;0.47;0.30;;;;;;;20.52;94.02;101503.19;5007099;28;20598;-67
2023/08/17 06:35:55;;;;;;;1.70;0.70;;;;;;;20.36;94.51;101499.38;5036755;28;20025;-66
2023/08/17 06:38:20;;;;;;;1.67;0.90;;;;;;;20.39;94.64;101493.09;5010672;28;20483;-66
2023/08/17 06:40:46;;;;;;;2.75;0.55;;;;;;;20.41;94.63;101493.47;5017935;28;20426;-66
2023/08/17 06:43:12;;;;;;;3.30;0.60;;;;;;;20.24;95.44;101495.16;5023818;28;20034;-66
2023/08/17 06:45:37;;;;;;;1.35;0.50;;;;;;;20.36;95.29;101482.97;4991546;28;20037;-65
2023/08/17 06:48:03;;;;;;;0.93;0.45;;;;;;;20.15;95.15;101478.34;5019294;28;20030;-65
2023/08/17 06:50:28;;;;;;;2.10;0.38;;;;;;;20.25;95.10;101487.72;5020419;28;20506;-66
2023/08/17 06:52:54;;;;;;;1.60;0.60;;;;;;;20.32;95.24;101491.22;5029685;28;20080;-66
2023/08/17 06:55:20;;;;;;;0.60;0.40;;;;;;;20.38;94.61;101494.28;5023969;28;20041;-66
2023/08/17 06:57:46;;;;;;;0.43;0.40;;;;;;;20.37;94.22;101493.50;5006755;28;20581;-66
2023/08/17 07:00:13;;;;;;;0.90;0.35;;;;;;;20.37;94.08;101498.19;5010003;28;20038;-66
2023/08/17 07:02:38;;;;;;;0.98;0.40;;;;;;;20.20;92.92;101496.34;5024965;28;20051;-66
2023/08/17 07:05:05;;;;;;;1.48;0.55;;;;;;;20.09;92.41;101490.13;5009535;28;20038;-65
2023/08/17 07:07:33;;;;;;;0.95;0.38;;;;;;;20.03;91.29;101491.72;5029350;28;20033;-65
2023/08/17 07:09:59;;;;;;;1.13;0.40;;;;;;;19.80;92.09;101484.78;5016542;28;20037;-69
2023/08/17 07:12:24;;;;;;;0.50;0.30;;;;;;;19.92;91.71;101474.59;5024611;28;20038;-66
2023/08/17 07:14:50;;;;;;;0.43;0.40;;;;;;;19.97;91.72;101474.16;5025285;28;20037;-66
2023/08/17 07:17:15;;;;;;;0.40;0.35;;;;;;;20.01;91.18;101462.03;5014547;28;20064;-66
2023/08/17 07:19:41;;;;;;;0.85;0.50;;;;;;;20.00;91.57;101463.19;5015682;28;20083;-66
2023/08/17 07:22:06;;;;;;;0.30;0.30;;;;;;;20.02;91.04;101458.13;5020272;28;20025;-66
2023/08/17 07:24:32;;;;;;;1.13;0.50;;;;;;;20.08;90.68;101461.19;5025518;28;20034;-66
2023/08/17 07:26:57;;;;;;;1.15;0.50;;;;;;;20.04;90.20;101466.69;5011958;28;20030;-66
2023/08/17 07:29:23;;;;;;;0.50;0.50;;;;;;;19.92;90.24;101464.41;5024129;28;20101;-66
2023/08/17 07:31:48;;;;;;;0.43;0.40;;;;;;;19.82;90.24;101469.94;5000354;28;20038;-66
2023/08/17 07:34:14;;;;;;;0.38;0.38;;;;;;;19.88;90.29;101468.34;5010693;28;20103;-66
2023/08/17 07:36:39;;;;;;;0.63;0.35;;;;;;;19.89;90.36;101462.47;5031315;28;20029;-65
2023/08/17 07:39:05;;;;;;;0.93;0.65;;;;;;;19.88;89.89;101471.09;5013732;28;20155;-67
2023/08/17 07:41:30;;;;;;;0.30;0.28;;;;;;;19.89;89.76;101472.63;5013173;28;20033;-66
2023/08/17 07:43:56;;;;;;;0.30;0.25;;;;;;;19.87;90.08;101473.03;5003003;28;20034;-65
2023/08/17 07:46:21;;;;;;;2.40;0.73;;;;;;;19.92;90.19;101469.13;5024455;28;20104;-66
2023/08/17 07:48:47;;;;;;;0.55;0.40;;;;;;;19.91;89.70;101473.03;5012823;28;20029;-65
2023/08/17 07:51:13;;;;;;;0.88;0.40;;;;;;;19.90;89.88;101474.22;5026253;28;20465;-65
2023/08/17 07:53:39;;;;;;;0.30;0.30;;;;;;;19.89;90.15;101472.63;5012758;28;20041;-68
2023/08/17 07:56:05;;;;;;;0.57;0.40;;;;;;;19.90;90.62;101472.22;5019363;28;20037;-66
2023/08/17 07:58:30;;;;;;;0.57;0.40;;;;;;;19.95;91.16;101473.78;5020663;28;20750;-66
2023/08/17 08:00:56;;;;;;;1.30;0.40;;;;;;;19.98;91.20;101473.75;5016014;28;20037;-65
2023/08/17 08:03:22;;;;;;;0.52;0.32;;;;;;;20.00;91.52;101470.63;5017151;28;20414;-66
2023/08/17 08:05:47;;;;;;;1.80;0.43;;;;;;;20.04;91.92;101483.09;5010629;28;20111;-64
2023/08/17 08:08:14;;;;;;;1.17;0.80;;;;;;;20.07;91.84;101481.53;5013502;28;20478;-67
2023/08/17 08:10:40;;;;;;;0.40;0.28;;;;;;;20.10;92.13;101480.72;5013534;28;20033;-67
2023/08/17 08:13:06;;;;;;;1.25;0.38;;;;;;;20.09;91.78;101485.41;5013397;28;20038;-68
2023/08/17 08:15:33;;;;;;;0.68;0.28;;;;;;;20.05;91.16;101489.38;5023199;28;20030;-64
2023/08/17 08:17:58;;;;;;;0.35;0.35;;;;;;;20.05;90.74;101486.63;5023523;28;20079;-65
2023/08/17 08:20:24;;;;;;;3.58;0.43;;;;;;;20.04;90.80;101487.78;5019331;28;20045;-67
2023/08/17 08:22:49;;;;;;;0.22;0.22;;;;;;;19.95;89.93;101482.78;4994561;28;20045;-66
2023/08/17 08:25:15;;;;;;;0.60;0.30;;;;;;;20.02;90.61;101487.41;5010296;28;20030;-65
2023/08/17 08:27:41;;;;;;;0.55;0.40;;;;;;;20.10;90.24;101497.16;5021562;28;20104;-66
2023/08/17 08:30:07;;;;;;;0.38;0.30;;;;;;;20.09;89.91;101496.34;5016347;28;20065;-66
2023/08/17 08:32:32;;;;;;;0.73;0.40;;;;;;;20.15;90.12;101494.00;5014703;28;20040;-68
2023/08/17 08:34:58;;;;;;;0.50;0.40;;;;;;;20.22;90.38;101492.03;5024708;28;20018;-67
2023/08/17 08:37:44;;;;;;;0.60;0.60;;;;;;;20.27;90.44;101490.81;4996868;28;20034;-66
2023/08/17 08:40:12;;;;;;;1.35;0.52;;;;;;;20.27;90.00;101488.09;4950812;29;20051;-66
2023/08/17 08:42:38;;;;;;;3.83;1.10;;;;;;;20.27;90.60;101488.09;4946084;29;20047;-66
2023/08/17 08:45:04;;;;;;;0.20;0.20;;;;;;;20.35;91.18;101495.09;4943270;29;20043;-66
2023/08/17 08:47:34;;;;;;;0.22;0.22;;;;;;;20.43;90.57;101488.38;4941696;29;20035;-66
2023/08/17 08:50:02;;;;;;;0.70;0.43;;;;;;;20.42;90.35;101484.09;4945359;29;20043;-66
2023/08/17 08:52:52;;;;;;;0.63;0.50;;;;;;;20.41;89.70;101488.78;4944941;29;20048;-66
2023/08/17 08:55:21;;;;;;;0.47;0.40;;;;;;;20.43;89.85;101491.13;4935032;29;20046;-67
2023/08/17 08:57:49;;;;;;;0.47;0.30;;;;;;;20.41;89.82;101482.53;4938633;29;20134;-66
2023/08/17 09:00:14;;;;;;;0.30;0.30;;;;;;;20.43;90.18;101482.91;4951412;29;20110;-66
2023/08/17 09:02:42;;;;;;;0.60;0.50;;;;;;;20.44;90.12;101481.75;4941432;29;20031;-66
2023/08/17 09:05:10;;;;;;;0.68;0.43;;;;;;;20.42;89.30;101487.59;4951124;29;20062;-66
2023/08/17 09:07:37;;;;;;;0.52;0.32;;;;;;;20.37;89.79;101490.78;4959481;29;20399;-66
2023/08/17 09:10:03;;;;;;;2.97;0.30;;;;;;;20.42;89.71;101486.84;4957274;29;20104;-67
2023/08/17 09:12:30;;;;;;;2.92;0.32;;;;;;;20.46;89.96;101484.88;4935958;29;20307;-67
2023/08/17 09:14:55;;;;;;;0.40;0.40;;;;;;;20.48;89.90;101485.22;4940804;29;20039;-67
2023/08/17 09:17:25;;;;;;;0.47;0.43;;;;;;;20.43;89.40;101480.19;4988793;28;20395;-67
2023/08/17 09:19:51;;;;;;;0.50;0.30;;;;;;;20.40;89.64;101486.47;5013055;28;20042;-67
2023/08/17 09:22:36;;;;;;;0.40;0.17;;;;;;;20.28;89.42;101478.72;5015431;28;20042;-66
2023/08/17 09:25:02;;;;;;;0.50;0.40;;;;;;;20.24;90.00;101476.00;5013373;28;20037;-65
2023/08/17 09:27:28;;;;;;;0.22;0.20;;;;;;;20.20;90.03;101477.19;5011841;28;20673;-66
2023/08/17 09:30:01;;;;;;;0.30;0.30;;;;;;;20.16;90.28;101476.41;5008782;28;20056;-65
2023/08/17 09:32:31;;;;;;;1.10;0.95;;;;;;;20.11;90.49;101465.91;5025823;28;20044;-66
2023/08/17 09:34:56;;;;;;;0.40;0.30;;;;;;;20.09;91.08;101462.78;5009176;28;20029;-65
2023/08/17 09:37:22;;;;;;;1.17;0.63;;;;;;;20.01;91.23;101451.09;5018976;28;20025;-65
2023/08/17 09:39:48;;;;;;;0.32;0.32;;;;;;;19.89;91.67;101442.56;5014034;28;20033;-65
2023/08/17 09:42:15;;;;;;;3.60;0.60;;;;;;;19.89;92.26;101435.13;5010446;28;20490;-65
2023/08/17 09:44:42;;;;;;;3.55;0.50;;;;;;;19.87;92.77;101440.22;5012928;28;20041;-65
2023/08/17 09:47:07;;;;;;;1.05;0.95;;;;;;;19.85;92.60;101441.78;5021102;28;20033;-66
2023/08/17 09:49:33;;;;;;;0.43;0.32;;;;;;;19.85;92.16;101441.78;5085157;22;20454;-67
2023/08/17 09:52:02;;;;;;;0.57;0.25;;;;;;;19.82;91.36;101443.38;5047397;28;20052;-69
2023/08/17 09:54:30;;;;;;;1.55;0.43;;;;;;;19.71;91.64;101448.09;5038405;28;20033;-68
2023/08/17 09:56:57;;;;;;;0.40;0.30;;;;;;;19.64;91.45;101448.94;5043353;28;20477;-69
2023/08/17 09:59:23;;;;;;;0.43;0.20;;;;;;;19.53;91.11;101450.91;5020285;28;20053;-70
2023/08/17 10:01:51;;;;;;;2.85;0.30;;;;;;;19.54;90.95;101448.97;5014859;28;20061;-71
2023/08/17 10:04:22;;;;;;;0.15;0.15;;;;;;;19.56;90.68;101463.00;5025761;28;20031;-69
2023/08/17 10:06:52;;;;;;;;;;;;;;;19.51;90.09;101450.50;5019862;28;20049;-69
2023/08/17 10:09:25;;;;;;;1.00;0.40;;;;;;;19.43;89.27;101445.50;5019855;28;19921;-69
2023/08/17 10:11:54;;;;;;;0.30;0.28;;;;;;;19.35;89.82;101446.69;5022477;28;20037;-69
2023/08/17 10:14:28;;;;;;;0.80;0.30;;;;;;;19.30;90.51;101447.06;5026544;28;20103;-69
2023/08/17 10:17:00;;;;;;;0.20;0.20;;;;;;;19.32;91.51;101447.41;5030981;28;20048;-70
2023/08/17 10:19:38;;;;;;;0.45;0.32;;;;;;;19.35;90.57;101442.00;5016007;28;20565;-69
2023/08/17 10:22:17;;;;;;;0.40;0.32;;;;;;;19.37;90.73;101449.78;5023807;28;20509;-69
2023/08/17 10:24:44;;;;;;;0.20;0.20;;;;;;;19.34;90.87;101456.81;5029205;28;20040;-68
2023/08/17 10:27:10;;;;;;;0.55;0.30;;;;;;;19.37;92.00;101456.03;5013604;28;20033;-68
2023/08/17 10:29:38;;;;;;;0.40;0.35;;;;;;;19.38;91.96;101445.88;5020993;28;20036;-69
2023/08/17 10:32:05;;;;;;;0.47;0.47;;;;;;;19.40;92.71;101444.31;5029734;28;20037;-69
2023/08/17 10:34:31;;;;;;;0.55;0.40;;;;;;;19.34;92.90;101456.81;5026959;28;20383;-67
2023/08/17 10:36:58;;;;;;;0.20;0.10;;;;;;;19.30;92.71;101458.00;5018612;28;20109;-70
2023/08/17 10:39:28;;;;;;;0.40;0.38;;;;;;;19.28;93.14;101452.91;5028624;28;20413;-69
2023/08/17 10:41:55;;;;;;;1.17;0.45;;;;;;;19.23;93.38;101456.03;5004349;28;20087;-68
2023/08/17 10:44:43;;;;;;;0.57;0.50;;;;;;;19.18;93.73;101450.22;5026154;28;20041;-69
2023/08/17 10:47:21;;;;;;;0.52;0.40;;;;;;;19.22;93.84;101457.19;5016808;28;20042;-68
2023/08/17 10:49:58;;;;;;;0.85;0.50;;;;;;;19.27;93.99;101448.63;5031598;28;20426;-69
2023/08/17 10:52:32;;;;;;;0.30;0.30;;;;;;;19.30;93.61;101449.78;5032033;28;20091;-68
2023/08/17 10:55:05;;;;;;;0.40;0.40;;;;;;;19.34;94.10;101462.28;5029969;28;20076;-69
2023/08/17 10:57:32;;;;;;;1.40;0.60;;;;;;;19.42;93.78;101465.78;5029922;28;20504;-69
2023/08/17 11:00:13;;;;;;;0.40;0.32;;;;;;;19.41;93.51;101469.69;5033868;28;20021;-67
2023/08/17 11:02:39;;;;;;;0.47;0.32;;;;;;;19.42;93.71;101477.50;5000226;28;20037;-68
2023/08/17 11:05:05;;;;;;;0.95;0.40;;;;;;;19.46;93.73;101486.47;5011138;28;20043;-67
2023/08/17 11:07:43;;;;;;;0.30;0.30;;;;;;;19.54;93.41;101489.94;5034192;28;20116;-69
2023/08/17 11:10:29;;;;;;;0.40;0.20;;;;;;;19.49;93.97;101476.69;5024834;28;20406;-69
2023/08/17 11:13:01;;;;;;;0.80;0.32;;;;;;;19.52;94.68;101470.44;5031234;28;20116;-69
2023/08/17 11:15:44;;;;;;;2.30;0.65;;;;;;;19.57;95.07;101470.81;5033963;28;20037;-68
2023/08/17 11:18:11;;;;;;;0.73;0.40;;;;;;;19.65;94.53;101471.56;5024884;28;20510;-70
2023/08/17 11:20:39;;;;;;;0.50;0.50;;;;;;;19.67;94.34;101447.34;5027626;28;20037;-69
2023/08/17 11:23:05;;;;;;;0.63;0.50;;;;;;;19.73;94.99;101434.81;5009163;28;20034;-68
2023/08/17 11:25:32;;;;;;;0.15;0.15;;;;;;;19.80;94.90;101437.53;5033126;28;20030;-68